createdAt,value
2023-05-10T00:03:32.516Z,9.07
2023-05-10T00:08:33.949Z,6.30
2023-05-10T00:13:35.550Z,4.50
2023-05-10T00:18:36.945Z,4.45
2023-05-10T00:23:38.538Z,4.18
2023-05-10T00:28:39.949Z,7.28
2023-05-10T00:33:41.317Z,5.38
2023-05-10T00:38:42.718Z,4.22
2023-05-10T00:43:44.159Z,3.78
2023-05-10T00:48:45.725Z,10.18
2023-05-10T00:53:47.072Z,6.88
2023-05-10T00:58:48.615Z,4.28
2023-05-10T01:03:50.567Z,3.17
2023-05-10T01:08:52.009Z,5.38
2023-05-10T01:13:58.473Z,13.75
2023-05-10T01:18:59.873Z,4.43
2023-05-10T01:24:19.888Z,6.15
2023-05-10T01:29:21.370Z,6.43
2023-05-10T01:34:26.494Z,5.88
2023-05-10T01:39:37.766Z,5.10
2023-05-10T01:44:47.557Z,4.90
2023-05-10T01:49:50.980Z,7.20
2023-05-10T01:54:56.863Z,5.63
2023-05-10T01:59:59.581Z,3.53
2023-05-10T02:05:00.924Z,3.33
2023-05-10T02:10:03.318Z,3.75
2023-05-10T02:15:06.541Z,6.95
2023-05-10T02:20:08.784Z,7.65
2023-05-10T02:25:12.498Z,6.30
2023-05-10T02:30:14.365Z,4.15
2023-05-10T02:35:16.262Z,4.40
2023-05-10T02:40:18.934Z,4.82
2023-05-10T02:45:21.401Z,5.68
2023-05-10T02:50:23.194Z,7.38
2023-05-10T02:55:27.699Z,5.05
2023-05-10T03:05:30.467Z,9.55
2023-05-10T03:10:33.746Z,3.92
2023-05-10T03:15:54.005Z,3.05
2023-05-10T03:21:03.498Z,8.68
2023-05-10T03:26:05.850Z,7.22
2023-05-10T03:31:07.640Z,6.32
2023-05-10T03:36:09.143Z,7.18
2023-05-10T03:41:10.544Z,4.43
2023-05-10T03:46:12.083Z,3.95
2023-05-10T03:51:13.437Z,6.75
2023-05-10T03:56:14.874Z,6.38
2023-05-10T04:01:16.209Z,5.28
2023-05-10T04:06:17.680Z,4.68
2023-05-10T04:11:19.016Z,6.03
2023-05-10T04:16:20.503Z,5.90
2023-05-10T04:21:22.104Z,5.40
2023-05-10T04:26:23.488Z,4.32
2023-05-10T04:31:25.037Z,5.13
2023-05-10T04:36:26.468Z,8.55
2023-05-10T04:41:27.852Z,5.78
2023-05-10T04:46:29.216Z,7.10
2023-05-10T04:51:30.694Z,8.57
2023-05-10T04:56:32.107Z,6.47
2023-05-10T05:01:33.614Z,5.40
2023-05-10T05:06:35.027Z,4.78
2023-05-10T05:11:36.621Z,4.88
2023-05-10T05:16:38.393Z,4.45
2023-05-10T05:21:39.855Z,4.78
2023-05-10T05:26:41.260Z,6.13
2023-05-10T05:31:42.775Z,5.35
2023-05-10T05:36:44.548Z,7.65
2023-05-10T05:41:47.322Z,6.18
2023-05-10T05:46:48.690Z,7.63
2023-05-10T05:51:51.323Z,3.65
2023-05-10T05:56:54.724Z,6.55
2023-05-10T06:01:56.239Z,5.23
2023-05-10T06:06:57.874Z,6.15
2023-05-10T06:11:59.203Z,4.00
2023-05-10T06:17:01.093Z,7.63
2023-05-10T06:22:02.798Z,5.95
2023-05-10T06:27:05.049Z,7.20
2023-05-10T06:32:06.443Z,8.90
2023-05-10T06:37:08.358Z,7.45
2023-05-10T06:42:09.690Z,5.45
2023-05-10T06:47:11.437Z,4.47
2023-05-10T06:52:13.178Z,5.30
2023-05-10T06:57:27.531Z,6.38
2023-05-10T07:02:32.476Z,3.50
2023-05-10T07:07:33.960Z,5.32
2023-05-10T07:12:35.437Z,6.30
2023-05-10T07:17:36.991Z,4.60
2023-05-10T07:22:38.705Z,4.85
2023-05-10T07:27:40.152Z,6.85
2023-05-10T07:32:42.834Z,4.68
2023-05-10T07:37:44.380Z,6.03
2023-05-10T07:42:45.825Z,4.75
2023-05-10T07:47:47.184Z,7.63
2023-05-10T07:52:49.065Z,4.30
2023-05-10T07:57:50.501Z,8.35
2023-05-10T08:02:52.377Z,4.68
2023-05-10T08:07:54.198Z,5.28
2023-05-10T08:12:55.627Z,9.13
2023-05-10T08:17:57.023Z,10.73
2023-05-10T08:22:58.356Z,7.80
2023-05-10T08:27:59.829Z,7.97
2023-05-10T08:33:01.295Z,6.55
2023-05-10T08:38:02.737Z,8.82
2023-05-10T08:43:10.529Z,23.90
2023-05-10T08:48:12.672Z,5.03
2023-05-10T08:53:14.936Z,5.22
2023-05-10T08:58:16.584Z,5.13
2023-05-10T09:03:18.816Z,5.93
2023-05-10T09:08:20.895Z,8.40
2023-05-10T09:13:22.878Z,5.43
2023-05-10T09:18:25.957Z,5.32
2023-05-10T09:23:33.272Z,5.78
2023-05-10T09:28:35.085Z,6.20
2023-05-10T09:33:44.704Z,9.18
2023-05-10T09:38:46.732Z,4.68
2023-05-10T09:43:48.726Z,4.50
2023-05-10T09:48:50.124Z,5.50
2023-05-10T09:54:11.080Z,8.23
2023-05-10T09:59:13.088Z,5.93
2023-05-10T10:04:14.555Z,4.88
2023-05-10T10:09:16.227Z,6.53
2023-05-10T10:14:19.558Z,9.10
2023-05-10T10:19:21.582Z,4.47
2023-05-10T10:24:22.986Z,7.13
2023-05-10T10:29:36.495Z,6.63
2023-05-10T10:34:39.786Z,7.85
2023-05-10T10:39:41.568Z,8.63
2023-05-10T10:44:44.897Z,6.85
2023-05-10T10:50:02.986Z,5.20
2023-05-10T10:55:10.006Z,10.13
2023-05-10T11:00:23.845Z,8.38
2023-05-10T11:05:44.304Z,7.15
2023-05-10T11:11:04.459Z,8.30
2023-05-10T11:16:22.963Z,10.18
2023-05-10T11:21:24.400Z,8.93
2023-05-10T11:26:27.304Z,8.80
2023-05-10T11:31:29.196Z,10.82
2023-05-10T11:36:33.809Z,11.40
2023-05-10T11:41:35.304Z,11.05
2023-05-10T11:46:37.572Z,11.65
2023-05-10T11:51:40.264Z,8.98
2023-05-10T11:56:41.869Z,12.57
2023-05-10T12:01:43.369Z,11.90
2023-05-10T12:06:45.129Z,13.35
2023-05-10T12:11:46.475Z,11.13
2023-05-10T12:16:48.882Z,10.88
2023-05-10T12:21:50.506Z,10.88
2023-05-10T12:26:51.851Z,13.38
2023-05-10T12:31:55.005Z,12.80
2023-05-10T12:36:56.744Z,11.55
2023-05-10T12:41:58.109Z,11.25
2023-05-10T12:46:59.472Z,14.15
2023-05-10T12:52:01.882Z,11.95
2023-05-10T12:57:03.224Z,12.10
2023-05-10T13:02:04.560Z,10.95
2023-05-10T13:07:09.160Z,11.20
2023-05-10T13:12:10.538Z,14.23
2023-05-10T13:17:11.963Z,15.57
2023-05-10T13:22:13.418Z,11.82
2023-05-10T13:27:14.762Z,15.60
2023-05-10T13:32:16.098Z,12.07
2023-05-10T13:37:17.738Z,16.33
2023-05-10T13:42:19.305Z,11.65
2023-05-10T13:47:22.610Z,11.60
2023-05-10T13:52:24.093Z,12.73
2023-05-10T13:57:25.630Z,13.75
2023-05-10T14:02:28.581Z,11.70
2023-05-10T14:07:30.014Z,13.77
2023-05-10T14:12:31.376Z,11.43
2023-05-10T14:17:32.823Z,12.32
2023-05-10T14:22:34.187Z,13.02
2023-05-10T14:27:35.586Z,9.43
2023-05-10T14:32:37.721Z,8.55
2023-05-10T14:37:39.256Z,8.93
2023-05-10T14:42:40.686Z,7.95
2023-05-10T14:47:42.045Z,5.38
2023-05-10T14:52:43.460Z,5.95
2023-05-10T14:57:45.079Z,5.18
2023-05-10T15:02:46.701Z,5.75
2023-05-10T15:07:48.387Z,4.72
2023-05-10T15:12:49.804Z,5.57
2023-05-10T15:17:51.430Z,3.70
2023-05-10T15:22:52.882Z,4.43
2023-05-10T15:27:54.262Z,2.38
2023-05-10T15:32:55.930Z,2.55
2023-05-10T15:37:57.430Z,2.50
2023-05-10T15:42:58.823Z,2.28
2023-05-10T15:48:00.449Z,1.90
2023-05-10T15:53:01.982Z,2.67
2023-05-10T15:58:03.469Z,3.30
2023-05-10T16:03:04.898Z,2.28
2023-05-10T16:08:06.681Z,3.22
2023-05-10T16:13:08.216Z,3.40
2023-05-10T16:18:10.102Z,4.32
2023-05-10T16:23:11.742Z,5.57
2023-05-10T16:28:13.269Z,4.20
2023-05-10T16:33:15.078Z,4.03
2023-05-10T16:38:16.451Z,3.65
2023-05-10T16:43:17.978Z,4.65
2023-05-10T16:48:19.295Z,4.88
2023-05-10T16:53:20.601Z,5.82
2023-05-10T16:58:21.974Z,6.03
2023-05-10T17:03:23.565Z,5.80
2023-05-10T17:08:25.039Z,6.80
2023-05-10T17:13:26.338Z,6.95
2023-05-10T17:18:27.795Z,9.45
2023-05-10T17:23:30.122Z,7.72
2023-05-10T17:28:32.479Z,7.75
2023-05-10T17:33:33.857Z,7.25
2023-05-10T17:38:35.869Z,8.45
2023-05-10T17:43:38.205Z,8.13
2023-05-10T17:48:39.780Z,8.38
2023-05-10T17:53:41.370Z,9.35
2023-05-10T17:58:42.838Z,9.70
2023-05-10T18:03:44.608Z,8.85
2023-05-10T18:08:45.986Z,10.82
2023-05-10T18:13:47.301Z,11.43
2023-05-10T18:18:48.973Z,10.45
2023-05-10T18:23:50.397Z,11.60
2023-05-10T18:28:52.011Z,14.15
2023-05-10T18:33:53.907Z,13.70
2023-05-10T18:38:55.757Z,12.73
2023-05-10T18:43:57.186Z,11.43
2023-05-10T18:48:58.636Z,9.65
2023-05-10T18:54:00.369Z,8.57
2023-05-10T18:59:01.766Z,8.57
2023-05-10T19:04:03.359Z,8.05
2023-05-10T19:09:04.841Z,11.07
2023-05-10T19:14:06.439Z,9.05
2023-05-10T19:19:09.293Z,9.93
2023-05-10T19:24:12.408Z,8.27
2023-05-10T19:29:13.903Z,7.60
2023-05-10T19:34:15.943Z,9.38
2023-05-10T19:39:17.350Z,8.38
2023-05-10T19:44:22.882Z,8.20
2023-05-10T19:49:24.389Z,8.63
2023-05-10T19:54:25.886Z,9.07
2023-05-10T19:59:27.561Z,11.80
2023-05-10T20:04:29.118Z,14.57
2023-05-10T20:09:30.620Z,13.80
2023-05-10T20:14:32.071Z,13.35
2023-05-10T20:19:34.397Z,12.50
2023-05-10T20:24:36.242Z,12.60
2023-05-10T20:29:37.613Z,15.30
2023-05-10T20:34:39.009Z,16.50
2023-05-10T20:39:40.552Z,16.83
2023-05-10T20:44:41.925Z,18.13
2023-05-10T20:49:43.399Z,17.92
2023-05-10T20:54:44.726Z,21.67
2023-05-10T20:59:46.134Z,21.60
2023-05-10T21:04:47.575Z,19.42
2023-05-10T21:09:48.994Z,18.60
2023-05-10T21:14:50.516Z,16.08
2023-05-10T21:19:51.854Z,13.65
2023-05-10T21:24:53.179Z,14.63
2023-05-10T21:29:54.518Z,14.10
2023-05-10T21:34:56.004Z,18.65
2023-05-10T21:39:57.515Z,20.42
2023-05-10T21:44:58.917Z,21.05
2023-05-10T21:50:00.294Z,22.85
2023-05-10T21:55:01.844Z,24.35
2023-05-10T22:00:03.673Z,25.83
2023-05-10T22:05:25.083Z,23.13
2023-05-10T22:10:26.415Z,26.98
2023-05-10T22:15:28.166Z,24.38
2023-05-10T22:20:29.603Z,23.48
2023-05-10T22:25:31.598Z,21.00
2023-05-10T22:30:33.277Z,18.75
2023-05-10T22:35:34.948Z,18.58
2023-05-10T22:40:36.299Z,22.08
2023-05-10T22:45:37.713Z,16.67
2023-05-10T22:50:39.302Z,20.55
2023-05-10T22:55:40.905Z,18.48
2023-05-10T23:00:42.273Z,18.88
2023-05-10T23:05:43.667Z,21.92
2023-05-10T23:10:45.062Z,20.05
2023-05-10T23:15:46.499Z,21.15
2023-05-10T23:20:47.939Z,26.67
2023-05-10T23:25:49.442Z,24.08
2023-05-10T23:30:54.639Z,26.00
2023-05-10T23:35:56.168Z,25.95
2023-05-10T23:40:57.969Z,24.98
2023-05-10T23:45:59.534Z,27.30
2023-05-10T23:51:01.011Z,28.35
2023-05-10T23:56:02.484Z,24.02
